Zachow, Wisconsin
Current Conditions -  °F | °C
As of 11:55 PM on Thursday 27 Nov 2014 (Local Time) from KEZS Reporting Station
Clear Clear  
Wind Chill:   Ceiling: Unl
Heat Index:   Visibility: 10mi
Dew Point: -1°   Wind: 0mph
Humidity: 82%   Direction: NA
Pressure: 30.34"   Gusts: NA
Location:  44.73°N, 88.36°W
Report Text: KEZS 280555Z AUTO 00000KT 10SM CLR M16/M18 A3034 RMK AO2 T11581182 11105 21161 410381161
Loading
Personal Weather Stations






























Interactive Weather Map New forecast layout! Learn more

10-Day Weather Forecast

Advertisements
Track Severe Weather on mobile